createdAt,value
2018-05-01T00:00:28.385Z,5.40
2018-05-01T00:02:55.911Z,5.40
2018-05-01T00:05:23.469Z,5.40
2018-05-01T00:07:51.033Z,5.30
2018-05-01T00:10:18.899Z,5.30
2018-05-01T00:12:47.196Z,5.20
2018-05-01T00:15:15.473Z,5.20
2018-05-01T00:17:43.010Z,5.20
2018-05-01T00:20:10.526Z,5.10
2018-05-01T00:22:38.048Z,5.10
2018-05-01T00:25:05.581Z,5.10
2018-05-01T00:27:33.096Z,5.10
2018-05-01T00:30:01.788Z,5.00
2018-05-01T00:32:29.308Z,5.00
2018-05-01T00:34:56.821Z,5.00
2018-05-01T00:37:24.369Z,4.90
2018-05-01T00:39:51.906Z,4.90
2018-05-01T00:42:19.427Z,4.90
2018-05-01T00:44:47.703Z,4.80
2018-05-01T00:47:16.004Z,4.80
2018-05-01T00:49:43.569Z,4.80
2018-05-01T00:52:23.053Z,4.80
2018-05-01T00:54:50.583Z,4.90
2018-05-01T00:57:18.096Z,4.90
2018-05-01T00:59:46.395Z,5.10
2018-05-01T01:02:13.921Z,5.10
2018-05-01T01:04:41.446Z,5.20
2018-05-01T01:07:08.984Z,5.20
2018-05-01T01:09:36.496Z,5.30
2018-05-01T01:12:04.032Z,5.30
2018-05-01T01:14:31.590Z,5.40
2018-05-01T01:16:59.125Z,5.40
2018-05-01T01:19:26.640Z,5.40
2018-05-01T01:21:54.927Z,5.40
2018-05-01T01:24:22.456Z,5.40
2018-05-01T01:26:49.988Z,5.50
2018-05-01T01:29:17.529Z,5.50
2018-05-01T01:31:45.064Z,5.50
2018-05-01T01:34:12.577Z,5.50
2018-05-01T01:36:39.610Z,5.60
2018-05-01T01:39:06.656Z,5.60
2018-05-01T01:41:33.695Z,5.70
2018-05-01T01:44:00.725Z,5.70
2018-05-01T01:46:27.786Z,5.80
2018-05-01T01:48:54.831Z,5.80
2018-05-01T01:51:21.880Z,5.80
2018-05-01T01:53:48.924Z,5.80
2018-05-01T01:56:16.005Z,5.90
2018-05-01T01:58:43.060Z,5.80
2018-05-01T02:01:10.082Z,5.90
2018-05-01T02:03:37.131Z,5.90
2018-05-01T02:06:04.161Z,5.90
2018-05-01T02:08:31.199Z,5.90
2018-05-01T02:10:59.020Z,6.00
2018-05-01T02:13:26.814Z,5.90
2018-05-01T02:15:53.840Z,5.90
2018-05-01T02:18:20.886Z,6.00
2018-05-01T02:20:48.672Z,5.90
2018-05-01T02:23:15.710Z,5.90
2018-05-01T02:25:42.736Z,6.00
2018-05-01T02:28:10.560Z,6.00
2018-05-01T02:30:37.609Z,6.00
2018-05-01T02:33:04.661Z,6.00
2018-05-01T02:35:31.695Z,5.90
2018-05-01T02:37:58.775Z,5.90
2018-05-01T02:40:25.813Z,6.00
2018-05-01T02:42:52.877Z,6.00
2018-05-01T02:45:20.014Z,6.00
2018-05-01T02:47:47.041Z,6.00
2018-05-01T02:50:14.081Z,6.00
2018-05-01T02:52:41.113Z,6.00
2018-05-01T02:55:08.146Z,6.00
2018-05-01T02:57:35.637Z,6.10
2018-05-01T03:00:02.693Z,6.00
2018-05-01T03:02:29.732Z,6.00
2018-05-01T03:04:56.773Z,6.00
2018-05-01T03:07:23.828Z,6.00
2018-05-01T03:09:50.918Z,6.00
2018-05-01T03:12:17.905Z,5.90
2018-05-01T03:14:45.090Z,6.00
2018-05-01T03:17:12.126Z,5.90
2018-05-01T03:19:39.142Z,5.90
2018-05-01T03:22:06.177Z,5.90
2018-05-01T03:24:33.209Z,5.90
2018-05-01T03:27:00.234Z,5.90
2018-05-01T03:29:28.035Z,5.90
2018-05-01T03:31:55.069Z,5.90
2018-05-01T03:34:22.165Z,5.90
2018-05-01T03:36:50.069Z,5.90
2018-05-01T03:39:17.141Z,5.90
2018-05-01T03:41:44.916Z,5.90
2018-05-01T03:44:12.725Z,5.90
2018-05-01T03:46:39.961Z,5.90
2018-05-01T03:49:07.830Z,5.90
2018-05-01T03:51:34.856Z,5.80
2018-05-01T03:54:01.894Z,5.90
2018-05-01T03:56:28.949Z,5.90
2018-05-01T03:58:55.972Z,5.80
2018-05-01T04:01:23.009Z,5.90
2018-05-01T04:03:50.056Z,5.90
2018-05-01T04:06:17.096Z,5.90
2018-05-01T04:08:44.125Z,5.90
2018-05-01T04:11:11.923Z,5.90
2018-05-01T04:13:38.951Z,5.90
2018-05-01T04:16:05.987Z,5.90
2018-05-01T04:18:33.784Z,5.90
2018-05-01T04:21:01.619Z,5.90
2018-05-01T04:23:29.423Z,5.90
2018-05-01T04:25:56.465Z,5.90
2018-05-01T04:28:23.503Z,5.90
2018-05-01T04:30:50.543Z,5.80
2018-05-01T04:33:17.571Z,5.80
2018-05-01T04:35:45.372Z,5.80
2018-05-01T04:38:12.389Z,5.80
2018-05-01T04:40:39.431Z,5.80
2018-05-01T04:43:06.480Z,5.80
2018-05-01T04:45:34.267Z,5.80
2018-05-01T04:48:01.296Z,5.80
2018-05-01T04:50:28.340Z,5.80
2018-05-01T04:52:55.389Z,5.80
2018-05-01T04:55:22.426Z,5.80
2018-05-01T04:57:50.227Z,5.80
2018-05-01T05:00:17.255Z,5.80
2018-05-01T05:02:44.308Z,5.80
2018-05-01T05:05:11.948Z,5.80
2018-05-01T05:07:38.996Z,5.80
2018-05-01T05:10:06.039Z,5.80
2018-05-01T05:12:33.097Z,5.80
2018-05-01T05:15:00.124Z,5.80
2018-05-01T05:17:27.931Z,5.80
2018-05-01T05:19:54.955Z,5.80
2018-05-01T05:22:21.979Z,5.90
2018-05-01T05:24:49.791Z,5.90
2018-05-01T05:27:16.835Z,5.90
2018-05-01T05:29:43.875Z,5.90
2018-05-01T05:32:10.904Z,5.90
2018-05-01T05:34:37.933Z,6.00
2018-05-01T05:37:05.744Z,6.00
2018-05-01T05:39:32.773Z,6.00
2018-05-01T05:41:59.833Z,6.00
2018-05-01T05:44:26.881Z,6.10
2018-05-01T05:46:53.922Z,6.10
2018-05-01T05:49:20.976Z,6.10
2018-05-01T05:51:48.008Z,6.20
2018-05-01T05:54:15.054Z,6.20
2018-05-01T05:56:42.099Z,6.20
2018-05-01T05:59:09.173Z,6.20
2018-05-01T06:01:36.217Z,6.20
2018-05-01T06:04:03.280Z,6.20
2018-05-01T06:06:31.244Z,6.20
2018-05-01T06:08:58.416Z,6.10
2018-05-01T06:11:26.573Z,6.20
2018-05-01T06:13:53.612Z,6.20
2018-05-01T06:16:20.649Z,6.20
2018-05-01T06:18:47.703Z,6.20
2018-05-01T06:21:14.739Z,6.20
2018-05-01T06:23:41.788Z,6.20
2018-05-01T06:26:08.835Z,6.20
2018-05-01T06:28:35.901Z,6.20
2018-05-01T06:31:03.036Z,6.20
2018-05-01T06:33:29.983Z,6.30
2018-05-01T06:35:57.036Z,6.30
2018-05-01T06:38:24.071Z,6.30
2018-05-01T06:40:51.103Z,6.30
2018-05-01T06:43:18.147Z,6.30
2018-05-01T06:45:45.181Z,6.30
2018-05-01T06:48:12.246Z,6.30
2018-05-01T06:50:39.318Z,6.40
2018-05-01T06:53:06.320Z,6.40
2018-05-01T06:55:33.343Z,6.50
2018-05-01T06:58:01.158Z,6.70
2018-05-01T07:00:28.221Z,6.70
2018-05-01T07:02:55.270Z,6.80
2018-05-01T07:05:22.287Z,6.90
2018-05-01T07:07:49.357Z,7.10
2018-05-01T07:10:16.435Z,7.20
2018-05-01T07:12:43.428Z,7.30
2018-05-01T07:15:10.478Z,7.40
2018-05-01T07:17:38.261Z,7.50
2018-05-01T07:20:05.306Z,7.50
2018-05-01T07:22:32.337Z,7.70
2018-05-01T07:24:59.410Z,7.90
2018-05-01T07:27:26.485Z,8.00
2018-05-01T07:29:53.496Z,8.30
2018-05-01T07:32:20.529Z,8.40
2018-05-01T07:34:48.384Z,8.30
2018-05-01T07:37:15.419Z,8.30
2018-05-01T07:39:42.467Z,8.50
2018-05-01T07:42:09.514Z,8.60
2018-05-01T07:44:36.574Z,8.60
2018-05-01T07:47:03.612Z,8.60
2018-05-01T07:49:30.652Z,8.40
2018-05-01T07:51:57.699Z,8.30
2018-05-01T07:54:24.763Z,8.30
2018-05-01T07:56:51.816Z,8.40
2018-05-01T07:59:18.840Z,8.50
2018-05-01T08:01:45.889Z,8.70
2018-05-01T08:04:13.693Z,9.00
2018-05-01T08:06:40.749Z,9.00
2018-05-01T08:09:07.766Z,9.20
2018-05-01T08:11:34.807Z,9.40
2018-05-01T08:14:01.830Z,9.80
2018-05-01T08:16:28.896Z,10.40
2018-05-01T08:18:55.924Z,10.70
2018-05-01T08:21:22.994Z,10.80
2018-05-01T08:23:50.013Z,11.10
2018-05-01T08:26:17.082Z,11.10
2018-05-01T08:28:44.132Z,11.00
2018-05-01T08:31:11.188Z,10.90
2018-05-01T08:33:38.245Z,10.80
2018-05-01T08:36:05.296Z,11.00
2018-05-01T08:38:32.345Z,11.30
2018-05-01T08:40:59.388Z,11.30
2018-05-01T08:43:26.443Z,11.10
2018-05-01T08:45:53.493Z,10.90
2018-05-01T08:48:20.552Z,10.80
2018-05-01T08:50:47.651Z,10.60
2018-05-01T08:53:15.458Z,10.20
2018-05-01T08:55:42.510Z,10.20
2018-05-01T08:58:09.560Z,10.30
2018-05-01T09:00:37.367Z,10.70
2018-05-01T09:03:04.429Z,10.70
2018-05-01T09:05:31.474Z,11.00
2018-05-01T09:07:58.526Z,11.40
2018-05-01T09:10:25.562Z,11.80
2018-05-01T09:12:52.612Z,11.90
2018-05-01T09:15:19.648Z,11.90
2018-05-01T09:17:46.833Z,11.70
2018-05-01T09:20:13.720Z,11.40
2018-05-01T09:22:40.760Z,11.00
2018-05-01T09:25:07.797Z,10.60
2018-05-01T09:27:35.606Z,10.20
2018-05-01T09:30:03.405Z,10.10
2018-05-01T09:32:30.466Z,10.10
2018-05-01T09:34:58.277Z,10.10
2018-05-01T09:37:25.310Z,10.10
2018-05-01T09:39:52.525Z,10.30
2018-05-01T09:42:19.553Z,10.50
2018-05-01T09:44:46.609Z,10.70
2018-05-01T09:47:13.636Z,10.80
2018-05-01T09:49:40.674Z,10.80
2018-05-01T09:52:07.712Z,10.70
2018-05-01T09:54:35.245Z,10.60
2018-05-01T09:57:03.600Z,10.60
2018-05-01T09:59:31.919Z,10.60
2018-05-01T10:01:59.436Z,10.60
2018-05-01T10:04:26.977Z,10.60
2018-05-01T10:06:54.511Z,10.60
2018-05-01T10:09:22.057Z,10.60
2018-05-01T10:11:49.588Z,10.80
2018-05-01T10:14:17.120Z,11.00
2018-05-01T10:16:45.456Z,11.10
2018-05-01T10:19:12.985Z,11.10
2018-05-01T10:21:40.520Z,11.00
2018-05-01T10:24:08.832Z,11.70
2018-05-01T10:26:36.360Z,11.70
2018-05-01T10:29:03.902Z,12.80
2018-05-01T10:31:31.448Z,13.80
2018-05-01T10:33:58.976Z,14.60
2018-05-01T10:36:26.487Z,14.80
2018-05-01T10:38:54.031Z,14.70
2018-05-01T10:41:21.557Z,14.70
2018-05-01T10:43:49.103Z,15.00
2018-05-01T10:46:16.653Z,15.10
2018-05-01T10:48:44.180Z,15.40
2018-05-01T10:51:12.482Z,14.50
2018-05-01T10:53:40.026Z,14.50
2018-05-01T10:56:08.336Z,13.30
2018-05-01T10:58:35.851Z,13.30
2018-05-01T11:01:04.159Z,11.80
2018-05-01T11:03:31.705Z,11.80
2018-05-01T11:05:59.248Z,11.70
2018-05-01T11:08:27.598Z,11.80
2018-05-01T11:10:55.073Z,11.80
2018-05-01T11:13:23.366Z,12.30
2018-05-01T11:15:50.911Z,12.30
2018-05-01T11:18:19.195Z,12.80
2018-05-01T11:20:46.741Z,12.80
2018-05-01T11:23:15.037Z,13.00
2018-05-01T11:25:42.596Z,13.00
2018-05-01T11:28:10.116Z,13.30
2018-05-01T11:30:37.676Z,13.70
2018-05-01T11:33:05.192Z,14.00
2018-05-01T11:35:32.744Z,14.10
2018-05-01T11:38:00.280Z,14.20
2018-05-01T11:40:27.811Z,14.30
2018-05-01T11:42:55.343Z,14.00
2018-05-01T11:45:22.859Z,13.80
2018-05-01T11:47:50.422Z,13.70
2018-05-01T11:50:17.958Z,13.70
2018-05-01T11:52:45.486Z,13.70
2018-05-01T11:55:13.027Z,13.80
2018-05-01T11:57:40.565Z,14.00
2018-05-01T12:00:08.096Z,14.10
2018-05-01T12:02:36.481Z,13.60
2018-05-01T12:05:03.929Z,13.60
2018-05-01T12:07:32.237Z,13.60
2018-05-01T12:09:59.784Z,13.60
2018-05-01T12:12:27.356Z,13.90
2018-05-01T12:14:54.973Z,14.20
2018-05-01T12:17:22.495Z,14.20
2018-05-01T12:19:50.038Z,14.20
2018-05-01T12:22:17.559Z,14.40
2018-05-01T12:24:45.853Z,14.60
2018-05-01T12:27:13.916Z,14.60
2018-05-01T12:29:41.450Z,14.60
2018-05-01T12:32:09.031Z,14.40
2018-05-01T12:34:36.521Z,14.20
2018-05-01T12:37:04.102Z,14.00
2018-05-01T12:39:32.339Z,14.20
2018-05-01T12:41:59.861Z,14.10
2018-05-01T12:44:28.244Z,14.00
2018-05-01T12:46:56.550Z,13.70
2018-05-01T12:49:24.085Z,13.70
2018-05-01T12:51:51.603Z,13.60
2018-05-01T12:54:19.189Z,13.80
2018-05-01T12:56:46.713Z,13.90
2018-05-01T12:59:14.290Z,14.00
2018-05-01T13:01:41.780Z,14.00
2018-05-01T13:04:10.072Z,14.00
2018-05-01T13:06:37.595Z,14.00
2018-05-01T13:09:06.032Z,14.10
2018-05-01T13:11:33.581Z,14.10
2018-05-01T13:14:01.123Z,14.20
2018-05-01T13:16:28.663Z,14.20
2018-05-01T13:18:57.076Z,14.30
2018-05-01T13:21:24.581Z,14.30
2018-05-01T13:23:52.104Z,14.40
2018-05-01T13:26:19.636Z,14.50
2018-05-01T13:28:47.182Z,14.50
2018-05-01T13:31:15.512Z,14.00
2018-05-01T13:33:43.041Z,14.00
2018-05-01T13:36:10.579Z,14.20
2018-05-01T13:38:38.109Z,14.30
2018-05-01T13:41:05.672Z,14.50
2018-05-01T13:43:33.970Z,14.70
2018-05-01T13:46:01.539Z,14.70
2018-05-01T13:48:29.055Z,14.70
2018-05-01T13:50:56.602Z,14.40
2018-05-01T13:53:24.125Z,14.20
2018-05-01T13:55:51.659Z,14.00
2018-05-01T13:58:19.200Z,13.90
2018-05-01T14:00:47.514Z,13.90
2018-05-01T14:03:15.060Z,13.90
2018-05-01T14:05:42.598Z,14.00
2018-05-01T14:08:10.897Z,14.20
2018-05-01T14:10:38.428Z,14.20
2018-05-01T14:13:06.725Z,14.10
2018-05-01T14:15:34.273Z,14.00
2018-05-01T14:18:02.568Z,13.90
2018-05-01T14:20:30.106Z,13.80
2018-05-01T14:22:58.458Z,13.90
2018-05-01T14:25:26.128Z,13.90
2018-05-01T14:27:53.533Z,13.90
2018-05-01T14:30:21.086Z,13.80
2018-05-01T14:32:48.616Z,13.70
2018-05-01T14:35:16.922Z,13.70
2018-05-01T14:37:44.458Z,13.70
2018-05-01T14:40:11.997Z,13.50
2018-05-01T14:42:40.323Z,13.50
2018-05-01T14:45:07.852Z,13.50
2018-05-01T14:47:35.375Z,13.50
2018-05-01T14:50:02.924Z,13.60
2018-05-01T14:52:30.496Z,13.70
2018-05-01T14:54:58.033Z,13.80
2018-05-01T14:57:25.582Z,13.90
2018-05-01T14:59:53.119Z,13.90
2018-05-01T15:02:20.649Z,13.90
2018-05-01T15:04:48.955Z,13.80
2018-05-01T15:07:16.494Z,13.80
2018-05-01T15:09:44.020Z,13.80
2018-05-01T15:12:11.535Z,13.70
2018-05-01T15:14:39.060Z,13.70
2018-05-01T15:17:06.590Z,13.70
2018-05-01T15:19:34.156Z,13.70
2018-05-01T15:22:01.711Z,13.80
2018-05-01T15:24:29.242Z,13.80
2018-05-01T15:26:56.795Z,13.80
2018-05-01T15:29:24.346Z,13.80
2018-05-01T15:31:51.876Z,13.80
2018-05-01T15:34:20.185Z,13.90
2018-05-01T15:36:47.709Z,13.90
2018-05-01T15:39:16.062Z,14.40
2018-05-01T15:41:43.612Z,14.40
2018-05-01T15:44:11.141Z,14.60
2018-05-01T15:46:38.682Z,14.70
2018-05-01T15:49:06.221Z,14.80
2018-05-01T15:51:33.788Z,14.80
2018-05-01T15:54:02.078Z,14.60
2018-05-01T15:56:29.615Z,14.60
2018-05-01T15:58:57.165Z,14.50
2018-05-01T16:01:24.691Z,14.60
2018-05-01T16:03:52.216Z,14.60
2018-05-01T16:06:19.748Z,14.60
2018-05-01T16:08:47.278Z,14.50
2018-05-01T16:11:14.840Z,14.30
2018-05-01T16:13:43.105Z,14.20
2018-05-01T16:16:10.636Z,14.10
2018-05-01T16:18:38.938Z,14.00
2018-05-01T16:21:06.485Z,14.00
2018-05-01T16:23:34.004Z,14.00
2018-05-01T16:26:01.548Z,14.00
2018-05-01T16:28:29.086Z,14.00
2018-05-01T16:30:56.630Z,13.70
2018-05-01T16:33:24.166Z,13.70
2018-05-01T16:35:52.688Z,13.60
2018-05-01T16:38:20.189Z,13.20
2018-05-01T16:40:48.246Z,12.80
2018-05-01T16:43:16.610Z,12.80
2018-05-01T16:45:44.243Z,12.80
2018-05-01T16:48:11.676Z,12.80
2018-05-01T16:50:39.209Z,12.90
2018-05-01T16:53:06.736Z,13.00
2018-05-01T16:55:35.049Z,13.40
2018-05-01T16:58:02.587Z,13.40
2018-05-01T17:00:30.133Z,13.50
2018-05-01T17:02:58.422Z,13.50
2018-05-01T17:05:25.968Z,13.50
2018-05-01T17:07:54.255Z,13.50
2018-05-01T17:10:21.800Z,13.50
2018-05-01T17:12:50.142Z,13.50
2018-05-01T17:15:17.644Z,13.50
2018-05-01T17:17:45.173Z,13.40
2018-05-01T17:20:12.706Z,13.30
2018-05-01T17:22:40.241Z,13.20
2018-05-01T17:25:07.804Z,13.10
2018-05-01T17:27:35.359Z,13.00
2018-05-01T17:30:02.886Z,12.90
2018-05-01T17:32:31.209Z,12.70
2018-05-01T17:34:58.755Z,12.70
2018-05-01T17:37:26.289Z,12.60
2018-05-01T17:39:53.807Z,12.50
2018-05-01T17:42:21.336Z,12.40
2018-05-01T17:44:48.871Z,12.20
2018-05-01T17:47:16.400Z,12.10
2018-05-01T17:49:44.693Z,12.00
2018-05-01T17:52:12.225Z,11.90
2018-05-01T17:54:39.767Z,11.90
2018-05-01T17:57:07.296Z,11.80
2018-05-01T17:59:34.824Z,11.80
2018-05-01T18:02:02.366Z,11.80
2018-05-01T18:04:30.671Z,11.70
2018-05-01T18:06:58.209Z,11.70
2018-05-01T18:09:26.520Z,11.70
2018-05-01T18:11:54.064Z,11.70
2018-05-01T18:14:21.601Z,11.70
2018-05-01T18:16:49.910Z,11.80
2018-05-01T18:19:17.445Z,11.80
2018-05-01T18:21:44.990Z,11.80
2018-05-01T18:24:13.285Z,11.70
2018-05-01T18:26:40.833Z,11.70
2018-05-01T18:29:09.108Z,11.50
2018-05-01T18:31:36.634Z,11.50
2018-05-01T18:34:04.162Z,11.40
2018-05-01T18:36:31.691Z,11.30
2018-05-01T18:38:59.986Z,11.10
2018-05-01T18:41:27.519Z,11.00
2018-05-01T18:43:55.031Z,11.00
2018-05-01T18:46:22.597Z,10.80
2018-05-01T18:48:51.116Z,10.70
2018-05-01T18:51:19.064Z,10.60
2018-05-01T18:53:47.368Z,10.30
2018-05-01T18:56:14.913Z,10.30
2018-05-01T18:58:43.209Z,10.10
2018-05-01T19:01:10.754Z,10.10
2018-05-01T19:03:38.285Z,10.00
2018-05-01T19:06:05.813Z,9.90
2018-05-01T19:08:33.333Z,9.80
2018-05-01T19:11:00.861Z,9.70
2018-05-01T19:13:28.461Z,9.60
2018-05-01T19:15:55.981Z,9.40
2018-05-01T19:18:23.499Z,9.20
2018-05-01T19:20:51.029Z,9.10
2018-05-01T19:23:18.554Z,9.00
2018-05-01T19:25:46.072Z,8.90
2018-05-01T19:28:13.619Z,8.80
2018-05-01T19:30:41.159Z,8.70
2018-05-01T19:33:08.743Z,8.60
2018-05-01T19:35:36.267Z,8.50
2018-05-01T19:38:03.813Z,8.30
2018-05-01T19:40:32.114Z,8.10
2018-05-01T19:42:59.636Z,8.10
2018-05-01T19:45:27.174Z,8.00
2018-05-01T19:47:54.708Z,7.90
2018-05-01T19:50:22.242Z,7.80
2018-05-01T19:52:49.827Z,7.70
2018-05-01T19:55:17.357Z,7.60
2018-05-01T19:57:44.898Z,7.50
2018-05-01T20:00:13.184Z,7.30
2018-05-01T20:02:41.489Z,7.20
2018-05-01T20:05:09.685Z,7.20
2018-05-01T20:07:37.223Z,7.00
2018-05-01T20:10:04.754Z,6.90
2018-05-01T20:12:33.057Z,6.70
2018-05-01T20:15:00.617Z,6.70
2018-05-01T20:17:28.896Z,6.70
2018-05-01T20:19:56.449Z,6.70
2018-05-01T20:22:24.731Z,6.60
2018-05-01T20:24:52.241Z,6.60
2018-05-01T20:27:20.568Z,6.50
2018-05-01T20:29:48.133Z,6.50
2018-05-01T20:32:15.671Z,6.50
2018-05-01T20:34:43.180Z,6.40
2018-05-01T20:37:10.708Z,6.40
2018-05-01T20:39:38.223Z,6.30
2018-05-01T20:42:06.537Z,6.20
2018-05-01T20:44:34.053Z,6.20
2018-05-01T20:47:02.973Z,6.10
2018-05-01T20:49:30.497Z,6.10
2018-05-01T20:51:58.037Z,6.10
2018-05-01T20:54:25.556Z,6.00
2018-05-01T20:56:53.084Z,5.90
2018-05-01T20:59:20.605Z,5.80
2018-05-01T21:01:48.232Z,5.80
2018-05-01T21:04:15.676Z,5.70
2018-05-01T21:06:43.200Z,5.60
2018-05-01T21:09:11.486Z,5.50
2018-05-01T21:11:39.793Z,5.50
2018-05-01T21:14:07.321Z,5.40
2018-05-01T21:16:35.631Z,5.30
2018-05-01T21:19:03.190Z,5.30
2018-05-01T21:21:30.731Z,5.20
2018-05-01T21:23:58.241Z,5.20
2018-05-01T21:26:25.804Z,5.10
2018-05-01T21:28:53.360Z,5.00
2018-05-01T21:31:20.884Z,4.90
2018-05-01T21:33:48.439Z,4.90
2018-05-01T21:36:16.006Z,4.80
2018-05-01T21:38:43.513Z,4.80
2018-05-01T21:41:11.816Z,4.80
2018-05-01T21:43:39.321Z,4.70
2018-05-01T21:46:06.857Z,4.70
2018-05-01T21:48:34.386Z,4.70
2018-05-01T21:51:01.992Z,4.60
2018-05-01T21:53:29.520Z,4.60
2018-05-01T21:55:57.060Z,4.50
2018-05-01T21:58:24.588Z,4.50
2018-05-01T22:00:52.125Z,4.50
2018-05-01T22:03:19.639Z,4.40
2018-05-01T22:05:47.219Z,4.30
2018-05-01T22:08:14.813Z,4.30
2018-05-01T22:10:42.355Z,4.20
2018-05-01T22:13:09.932Z,4.20
2018-05-01T22:15:37.516Z,4.10
2018-05-01T22:18:05.006Z,4.10
2018-05-01T22:20:32.530Z,4.10
2018-05-01T22:23:00.866Z,4.00
2018-05-01T22:25:28.400Z,4.00
2018-05-01T22:27:55.940Z,4.00
2018-05-01T22:30:23.462Z,4.00
2018-05-01T22:32:50.989Z,3.90
2018-05-01T22:35:18.506Z,3.80
2018-05-01T22:37:46.042Z,3.80
2018-05-01T22:40:13.588Z,3.80
2018-05-01T22:42:41.107Z,3.80
2018-05-01T22:45:08.639Z,3.80
2018-05-01T22:47:36.172Z,3.80
2018-05-01T22:50:03.701Z,3.80
2018-05-01T22:52:31.231Z,3.70
2018-05-01T22:54:58.757Z,3.70
2018-05-01T22:57:27.049Z,3.70
2018-05-01T22:59:54.588Z,3.60
2018-05-01T23:02:22.881Z,3.60
2018-05-01T23:04:50.398Z,3.60
2018-05-01T23:07:17.951Z,3.50
2018-05-01T23:09:45.479Z,3.50
2018-05-01T23:12:13.000Z,3.40
2018-05-01T23:14:41.310Z,3.30
2018-05-01T23:17:08.847Z,3.30
2018-05-01T23:19:36.364Z,3.30
2018-05-01T23:22:03.913Z,3.20
2018-05-01T23:24:31.412Z,3.20
2018-05-01T23:26:59.708Z,3.10
2018-05-01T23:29:27.239Z,3.00
2018-05-01T23:31:55.528Z,3.00
2018-05-01T23:34:23.049Z,2.90
2018-05-01T23:36:50.581Z,3.60
2018-05-01T23:39:18.101Z,2.90
2018-05-01T23:41:46.403Z,2.80
2018-05-01T23:44:13.924Z,2.80
2018-05-01T23:46:42.258Z,2.80
2018-05-01T23:49:09.780Z,2.70
2018-05-01T23:51:37.308Z,2.80
2018-05-01T23:54:04.829Z,2.70
2018-05-01T23:56:32.369Z,2.70
2018-05-01T23:58:59.875Z,2.60
